DEECK VNLK-VNLK
Flight info
| Callsign | DEECK |
|---|---|
| Flight time | N/A |
| Altitude | 9000 |
| Route | DCT |
| Aircraft | PC6/L-GS/L |
Departure
| Time | 2026-02-05 15:59 |
|---|---|
| Airport | Tenzing-Hillary Airport (VNLK) |
Arrival
| Time | N/A |
|---|---|
| Airport | Tenzing-Hillary Airport (VNLK) |
| Time | Latitude | Longitude | Altitude | Speed | Heading |
|---|---|---|---|---|---|
| 2026-02-05 15:55 | 27.68770 | 86.73188 | 9405 ft | 0 kts | 27° |
| 2026-02-05 15:55 | 27.68750 | 86.73183 | 9404 ft | 2 kts | 339° |
| 2026-02-05 15:56 | 27.68648 | 86.72883 | 9269 ft | 81 kts | 239° |
| 2026-02-05 15:57 | 27.69276 | 86.71175 | 9558 ft | 122 kts | 357° |
| 2026-02-05 15:58 | 27.70933 | 86.71014 | 9813 ft | 118 kts | 355° |
| 2026-02-05 15:58 | 27.72524 | 86.70879 | 10097 ft | 105 kts | 349° |
| 2026-02-05 15:59 | 27.74093 | 86.71026 | 10308 ft | 121 kts | 9° |
| 2026-02-05 15:59 | 27.74930 | 86.71182 | 10344 ft | 125 kts | 4° |
| 2026-02-05 15:59 | 27.76635 | 86.71407 | 10835 ft | 119 kts | 9° |
| 2026-02-05 16:00 | 27.78283 | 86.71639 | 11305 ft | 116 kts | 355° |
| 2026-02-05 16:00 | 27.79857 | 86.71502 | 11994 ft | 108 kts | 354° |
| 2026-02-05 16:01 | 27.82102 | 86.71162 | 13133 ft | 109 kts | 12° |
| 2026-02-05 16:02 | 27.82614 | 86.72773 | 13178 ft | 131 kts | 76° |
| 2026-02-05 16:02 | 27.83433 | 86.74642 | 13226 ft | 128 kts | 58° |
| 2026-02-05 16:02 | 27.83882 | 86.75510 | 13334 ft | 137 kts | 60° |
| 2026-02-05 16:03 | 27.84692 | 86.77467 | 13547 ft | 140 kts | 65° |
| 2026-02-05 16:03 | 27.85718 | 86.79307 | 13796 ft | 142 kts | 49° |
| 2026-02-05 16:04 | 27.86783 | 86.81023 | 14409 ft | 124 kts | 51° |
| 2026-02-05 16:04 | 27.88467 | 86.81782 | 14794 ft | 128 kts | 19° |
| 2026-02-05 16:05 | 27.90861 | 86.80663 | 14961 ft | 132 kts | 316° |
| 2026-02-05 16:06 | 27.92150 | 86.79305 | 15614 ft | 132 kts | 296° |
| 2026-02-05 16:06 | 27.93156 | 86.77511 | 16319 ft | 132 kts | 324° |
| 2026-02-05 16:07 | 27.94949 | 86.77633 | 17116 ft | 131 kts | 28° |
| 2026-02-05 16:07 | 27.95809 | 86.77756 | 17529 ft | 131 kts | 332° |
| 2026-02-05 16:07 | 27.95304 | 86.76446 | 17710 ft | 147 kts | 164° |
| 2026-02-05 16:08 | 27.94661 | 86.78429 | 18200 ft | 137 kts | 95° |
| 2026-02-05 16:08 | 27.94941 | 86.80689 | 18270 ft | 151 kts | 56° |
| 2026-02-05 16:09 | 27.97685 | 86.81860 | 18610 ft | 142 kts | 42° |
| 2026-02-05 16:10 | 27.99139 | 86.83562 | 18886 ft | 146 kts | 36° |
| 2026-02-05 16:10 | 28.00793 | 86.84837 | 19430 ft | 137 kts | 42° |
| 2026-02-05 16:10 | 28.01104 | 86.85778 | 19750 ft | 136 kts | 96° |
| 2026-02-05 16:11 | 27.99649 | 86.87099 | 20193 ft | 141 kts | 170° |
| 2026-02-05 16:11 | 27.98304 | 86.88371 | 20917 ft | 134 kts | 101° |
| 2026-02-05 16:12 | 27.97539 | 86.89888 | 21757 ft | 100 kts | 115° |
| 2026-02-05 16:12 | 27.98142 | 86.89742 | 21437 ft | 152 kts | 264° |
| 2026-02-05 16:13 | 27.98984 | 86.86534 | 20931 ft | 129 kts | 266° |
| 2026-02-05 16:14 | 27.98244 | 86.84361 | 20176 ft | 142 kts | 244° |
| 2026-02-05 16:14 | 27.97936 | 86.83379 | 19884 ft | 131 kts | 269° |
| 2026-02-05 16:14 | 27.99227 | 86.82064 | 19190 ft | 144 kts | 358° |
| 2026-02-05 16:15 | 28.00121 | 86.83388 | 18652 ft | 141 kts | 119° |
| 2026-02-05 16:15 | 27.98498 | 86.84540 | 17715 ft | 137 kts | 191° |
| 2026-02-05 16:16 | 27.97607 | 86.82892 | 17089 ft | 113 kts | 235° |
| 2026-02-05 16:16 | 27.95828 | 86.82478 | 16862 ft | 147 kts | 191° |